Terminal Aerodrome Forecast
Issued by NWS

Home | Current Version | Previous Version | Text Only | Print | Product List | Glossary On
Versions: 1 2 3 4 5 6 7 8 9 10 11 12 13 14 15 16 17 18 19 20 21 22 23
000
FTUS41 KGYX 220034 RRA
TAFHIE
TAF
KHIE 220034Z 2201/2224 00000KT P6SM BKN030 OVC040
     FM220300 00000KT P6SM OVC025
     FM221200 00000KT P6SM OVC012=

USA.gov is the U.S. government's official web portal to all federal, state and local government web resources and services.